Time;durP1;ratioP1;P1;durP2;ratioP2;P2;SDS_P1;SDS_P2;PMS_P1;PMS_P2;Temp;Humidity;BMP_temperature;BMP_pressure;BME280_temperature;BME280_humidity;BME280_pressure;Samples;Min_cycle;Max_cycle;Signal;HPM_P1;HPM_P2
2020/01/09 00:00:33;;;;;;;2.900001;2.5;;;;;;;5.41;84.50586;96218.14;;;;
2020/01/09 00:01:41;;;;;;;2.900001;2.5;;;;;;;5.41;84.50586;96218.14;;;;
2020/01/09 00:03:20;;;;;;;2.900001;2.5;;;;;;;5.41;84.50586;96218.14;;;;
2020/01/09 00:04:21;;;;;;;2.900001;2.5;;;;;;;5.41;84.50586;96218.14;;;;
2020/01/09 00:05:22;;;;;;;2.900001;2.5;;;;;;;5.41;84.50586;96218.14;;;;
2020/01/09 00:07:27;;;;;;;2.900001;2.5;;;;;;;5.41;84.50586;96218.14;;;;
2020/01/09 00:08:28;;;;;;;2.900001;2.5;;;;;;;5.41;84.50586;96218.14;;;;
2020/01/09 00:09:38;;;;;;;3.05;2.25;;;;;;;5.6;83.81445;96192.17;;;;
2020/01/09 00:10:46;;;;;;;3.05;2.25;;;;;;;5.6;83.81445;96192.17;;;;
2020/01/09 00:11:48;;;;;;;3.05;2.25;;;;;;;5.6;83.81445;96192.17;;;;
2020/01/09 00:12:52;;;;;;;3.05;2.25;;;;;;;5.6;83.81445;96192.17;;;;
2020/01/09 00:13:53;;;;;;;3.05;2.25;;;;;;;5.6;83.81445;96192.17;;;;
2020/01/09 00:14:54;;;;;;;3.05;2.25;;;;;;;5.6;83.81445;96192.17;;;;
2020/01/09 00:15:55;;;;;;;3.05;2.25;;;;;;;5.6;83.81445;96192.17;;;;
2020/01/09 00:16:55;;;;;;;3.05;2.25;;;;;;;5.6;83.81445;96192.17;;;;
2020/01/09 00:17:56;;;;;;;3.05;2.25;;;;;;;5.6;83.81445;96192.17;;;;
2020/01/09 00:18:57;;;;;;;3.05;2.25;;;;;;;5.6;83.81445;96192.17;;;;
2020/01/09 00:19:58;;;;;;;3;2.299999;;;;;;;5.66;83.45605;96187.01;;;;
2020/01/09 00:20:58;;;;;;;3;2.299999;;;;;;;5.66;83.45605;96187.01;;;;
2020/01/09 00:21:59;;;;;;;3;2.299999;;;;;;;5.66;83.45605;96187.01;;;;
2020/01/09 00:22:59;;;;;;;3;2.299999;;;;;;;5.66;83.45605;96187.01;;;;
2020/01/09 00:24:00;;;;;;;3;2.299999;;;;;;;5.66;83.45605;96187.01;;;;
2020/01/09 00:25:01;;;;;;;3;2.299999;;;;;;;5.66;83.45605;96187.01;;;;
2020/01/09 00:26:01;;;;;;;3;2.299999;;;;;;;5.66;83.45605;96187.01;;;;
2020/01/09 00:27:02;;;;;;;3;2.299999;;;;;;;5.66;83.45605;96187.01;;;;
2020/01/09 00:28:03;;;;;;;3;2.299999;;;;;;;5.66;83.45605;96187.01;;;;
2020/01/09 00:29:04;;;;;;;3;2.299999;;;;;;;5.66;83.45605;96187.01;;;;
2020/01/09 00:30:05;;;;;;;3;2.299999;;;;;;;5.66;83.45605;96187.01;;;;
2020/01/09 00:31:05;;;;;;;3;2.5;;;;;;;5.64;82.96777;96167.1;;;;
2020/01/09 00:32:06;;;;;;;3;2.5;;;;;;;5.64;82.96777;96167.1;;;;
2020/01/09 00:33:06;;;;;;;3;2.5;;;;;;;5.64;82.96777;96167.1;;;;
2020/01/09 00:34:06;;;;;;;3;2.5;;;;;;;5.64;82.96777;96167.1;;;;
2020/01/09 00:35:07;;;;;;;3;2.5;;;;;;;5.64;82.96777;96167.1;;;;
2020/01/09 00:36:07;;;;;;;3;2.5;;;;;;;5.64;82.96777;96167.1;;;;
2020/01/09 00:37:08;;;;;;;3;2.5;;;;;;;5.64;82.96777;96167.1;;;;
2020/01/09 00:38:08;;;;;;;3;2.5;;;;;;;5.64;82.96777;96167.1;;;;
2020/01/09 00:39:09;;;;;;;3;2.5;;;;;;;5.64;82.96777;96167.1;;;;
2020/01/09 00:40:10;;;;;;;3;2.5;;;;;;;5.64;82.96777;96167.1;;;;
2020/01/09 00:41:10;;;;;;;3.8;2.3;;;;;;;5.67;82.8584;96150.66;;;;
2020/01/09 00:42:11;;;;;;;3.8;2.3;;;;;;;5.67;82.8584;96150.66;;;;
2020/01/09 00:43:11;;;;;;;3.8;2.3;;;;;;;5.67;82.8584;96150.66;;;;
2020/01/09 00:44:12;;;;;;;3.8;2.3;;;;;;;5.67;82.8584;96150.66;;;;
2020/01/09 00:45:12;;;;;;;3.8;2.3;;;;;;;5.67;82.8584;96150.66;;;;
2020/01/09 00:46:13;;;;;;;3.8;2.3;;;;;;;5.67;82.8584;96150.66;;;;
2020/01/09 00:47:13;;;;;;;3.8;2.3;;;;;;;5.67;82.8584;96150.66;;;;
2020/01/09 00:48:14;;;;;;;3.8;2.3;;;;;;;5.67;82.8584;96150.66;;;;
2020/01/09 00:49:14;;;;;;;3.8;2.3;;;;;;;5.67;82.8584;96150.66;;;;
2020/01/09 00:50:14;;;;;;;3.8;2.3;;;;;;;5.67;82.8584;96150.66;;;;
2020/01/09 00:51:15;;;;;;;3.8;2.3;;;;;;;5.67;82.8584;96150.66;;;;
2020/01/09 00:52:15;;;;;;;3.2;2.5;;;;;;;5.63;82.56445;96129.79;;;;
2020/01/09 00:53:16;;;;;;;3.2;2.5;;;;;;;5.63;82.56445;96129.79;;;;
2020/01/09 00:54:16;;;;;;;3.2;2.5;;;;;;;5.63;82.56445;96129.79;;;;
2020/01/09 00:55:17;;;;;;;3.2;2.5;;;;;;;5.63;82.56445;96129.79;;;;
2020/01/09 00:56:17;;;;;;;3.2;2.5;;;;;;;5.63;82.56445;96129.79;;;;
2020/01/09 00:57:18;;;;;;;3.2;2.5;;;;;;;5.63;82.56445;96129.79;;;;
2020/01/09 00:58:18;;;;;;;3.2;2.5;;;;;;;5.63;82.56445;96129.79;;;;
2020/01/09 00:59:19;;;;;;;3.2;2.5;;;;;;;5.63;82.56445;96129.79;;;;
2020/01/09 01:00:20;;;;;;;3.2;2.5;;;;;;;5.63;82.56445;96129.79;;;;
2020/01/09 01:01:20;;;;;;;3.2;2.5;;;;;;;5.63;82.56445;96129.79;;;;
2020/01/09 01:02:23;;;;;;;4.199999;2.65;;;;;;;5.52;82.63965;96121.3;;;;
2020/01/09 01:03:30;;;;;;;4.199999;2.65;;;;;;;5.52;82.63965;96121.3;;;;
2020/01/09 01:04:32;;;;;;;4.199999;2.65;;;;;;;5.52;82.63965;96121.3;;;;
2020/01/09 01:05:33;;;;;;;4.199999;2.65;;;;;;;5.52;82.63965;96121.3;;;;
2020/01/09 01:06:34;;;;;;;4.199999;2.65;;;;;;;5.52;82.63965;96121.3;;;;
2020/01/09 01:07:35;;;;;;;4.199999;2.65;;;;;;;5.52;82.63965;96121.3;;;;
2020/01/09 01:08:35;;;;;;;4.199999;2.65;;;;;;;5.52;82.63965;96121.3;;;;
2020/01/09 01:09:36;;;;;;;4.199999;2.65;;;;;;;5.52;82.63965;96121.3;;;;
2020/01/09 01:10:39;;;;;;;4.199999;2.65;;;;;;;5.52;82.63965;96121.3;;;;
2020/01/09 01:11:59;;;;;;;4.199999;2.65;;;;;;;5.52;82.63965;96121.3;;;;
2020/01/09 01:13:00;;;;;;;2.75;2.3;;;;;;;5.21;82.50488;96112.16;;;;
2020/01/09 01:14:00;;;;;;;2.75;2.3;;;;;;;5.21;82.50488;96112.16;;;;
2020/01/09 01:15:01;;;;;;;2.75;2.3;;;;;;;5.21;82.50488;96112.16;;;;
2020/01/09 01:16:02;;;;;;;2.75;2.3;;;;;;;5.21;82.50488;96112.16;;;;
2020/01/09 01:17:03;;;;;;;2.75;2.3;;;;;;;5.21;82.50488;96112.16;;;;
2020/01/09 01:18:04;;;;;;;2.75;2.3;;;;;;;5.21;82.50488;96112.16;;;;
2020/01/09 01:19:04;;;;;;;2.75;2.3;;;;;;;5.21;82.50488;96112.16;;;;
2020/01/09 01:20:05;;;;;;;2.75;2.3;;;;;;;5.21;82.50488;96112.16;;;;
2020/01/09 01:21:06;;;;;;;2.75;2.3;;;;;;;5.21;82.50488;96112.16;;;;
2020/01/09 01:22:09;;;;;;;2.75;2.3;;;;;;;5.21;82.50488;96112.16;;;;
2020/01/09 01:23:10;;;;;;;2.75;2.3;;;;;;;5.21;82.50488;96112.16;;;;
2020/01/09 01:24:10;;;;;;;3.9;2.6;;;;;;;4.92;82.72363;96097.8;;;;
2020/01/09 01:25:11;;;;;;;3.9;2.6;;;;;;;4.92;82.72363;96097.8;;;;
2020/01/09 01:26:11;;;;;;;3.9;2.6;;;;;;;4.92;82.72363;96097.8;;;;
2020/01/09 01:27:12;;;;;;;3.9;2.6;;;;;;;4.92;82.72363;96097.8;;;;
2020/01/09 01:28:12;;;;;;;3.9;2.6;;;;;;;4.92;82.72363;96097.8;;;;
2020/01/09 01:29:13;;;;;;;3.9;2.6;;;;;;;4.92;82.72363;96097.8;;;;
2020/01/09 01:30:13;;;;;;;3.9;2.6;;;;;;;4.92;82.72363;96097.8;;;;
2020/01/09 01:31:14;;;;;;;3.9;2.6;;;;;;;4.92;82.72363;96097.8;;;;
2020/01/09 01:32:14;;;;;;;3.9;2.6;;;;;;;4.92;82.72363;96097.8;;;;
2020/01/09 01:33:15;;;;;;;3.9;2.6;;;;;;;4.92;82.72363;96097.8;;;;
2020/01/09 01:34:15;;;;;;;2.55;2.05;;;;;;;4.77;82.55957;96069.25;;;;
2020/01/09 01:35:16;;;;;;;2.55;2.05;;;;;;;4.77;82.55957;96069.25;;;;
2020/01/09 01:36:17;;;;;;;2.55;2.05;;;;;;;4.77;82.55957;96069.25;;;;
2020/01/09 01:37:17;;;;;;;2.55;2.05;;;;;;;4.77;82.55957;96069.25;;;;
2020/01/09 01:38:18;;;;;;;2.55;2.05;;;;;;;4.77;82.55957;96069.25;;;;
2020/01/09 01:39:19;;;;;;;2.55;2.05;;;;;;;4.77;82.55957;96069.25;;;;
2020/01/09 01:40:26;;;;;;;2.55;2.05;;;;;;;4.77;82.55957;96069.25;;;;
2020/01/09 01:41:27;;;;;;;2.55;2.05;;;;;;;4.77;82.55957;96069.25;;;;
2020/01/09 01:42:27;;;;;;;2.55;2.05;;;;;;;4.77;82.55957;96069.25;;;;
2020/01/09 01:43:28;;;;;;;2.55;2.05;;;;;;;4.77;82.55957;96069.25;;;;
2020/01/09 01:44:28;;;;;;;2.55;2.05;;;;;;;4.77;82.55957;96069.25;;;;
2020/01/09 01:45:29;;;;;;;2.4;2;;;;;;;4.89;81.92773;96062.05;;;;
2020/01/09 01:46:29;;;;;;;2.4;2;;;;;;;4.89;81.92773;96062.05;;;;
2020/01/09 01:47:29;;;;;;;2.4;2;;;;;;;4.89;81.92773;96062.05;;;;
2020/01/09 01:48:30;;;;;;;2.4;2;;;;;;;4.89;81.92773;96062.05;;;;
2020/01/09 01:49:30;;;;;;;2.4;2;;;;;;;4.89;81.92773;96062.05;;;;
2020/01/09 01:50:31;;;;;;;2.4;2;;;;;;;4.89;81.92773;96062.05;;;;
2020/01/09 01:51:31;;;;;;;2.4;2;;;;;;;4.89;81.92773;96062.05;;;;
2020/01/09 01:52:32;;;;;;;2.4;2;;;;;;;4.89;81.92773;96062.05;;;;
2020/01/09 01:53:32;;;;;;;2.4;2;;;;;;;4.89;81.92773;96062.05;;;;
2020/01/09 01:54:33;;;;;;;2.4;2;;;;;;;4.89;81.92773;96062.05;;;;
2020/01/09 01:55:33;;;;;;;2.4;1.8;;;;;;;4.87;81.42871;96059.14;;;;
2020/01/09 01:56:34;;;;;;;2.4;1.8;;;;;;;4.87;81.42871;96059.14;;;;
2020/01/09 01:57:34;;;;;;;2.4;1.8;;;;;;;4.87;81.42871;96059.14;;;;
2020/01/09 01:58:35;;;;;;;2.4;1.8;;;;;;;4.87;81.42871;96059.14;;;;
2020/01/09 01:59:35;;;;;;;2.4;1.8;;;;;;;4.87;81.42871;96059.14;;;;
2020/01/09 02:00:36;;;;;;;2.4;1.8;;;;;;;4.87;81.42871;96059.14;;;;
2020/01/09 02:01:36;;;;;;;2.4;1.8;;;;;;;4.87;81.42871;96059.14;;;;
2020/01/09 02:02:38;;;;;;;2.4;1.8;;;;;;;4.87;81.42871;96059.14;;;;
2020/01/09 02:03:39;;;;;;;2.4;1.8;;;;;;;4.87;81.42871;96059.14;;;;
2020/01/09 02:04:40;;;;;;;2.4;1.8;;;;;;;4.87;81.42871;96059.14;;;;
2020/01/09 02:05:40;;;;;;;2.4;1.8;;;;;;;4.87;81.42871;96059.14;;;;
2020/01/09 02:06:40;;;;;;;2.45;2;;;;;;;4.8;80.96289;96065.81;;;;
2020/01/09 02:07:41;;;;;;;2.45;2;;;;;;;4.8;80.96289;96065.81;;;;
2020/01/09 02:08:41;;;;;;;2.45;2;;;;;;;4.8;80.96289;96065.81;;;;
2020/01/09 02:09:42;;;;;;;2.45;2;;;;;;;4.8;80.96289;96065.81;;;;
2020/01/09 02:10:42;;;;;;;2.45;2;;;;;;;4.8;80.96289;96065.81;;;;
2020/01/09 02:11:43;;;;;;;2.45;2;;;;;;;4.8;80.96289;96065.81;;;;
2020/01/09 02:12:43;;;;;;;2.45;2;;;;;;;4.8;80.96289;96065.81;;;;
2020/01/09 02:13:44;;;;;;;2.45;2;;;;;;;4.8;80.96289;96065.81;;;;
2020/01/09 02:14:44;;;;;;;2.45;2;;;;;;;4.8;80.96289;96065.81;;;;
2020/01/09 02:15:45;;;;;;;2.45;2;;;;;;;4.8;80.96289;96065.81;;;;
2020/01/09 02:16:45;;;;;;;2.5;2.05;;;;;;;4.5;80.93848;96053.28;;;;
2020/01/09 02:17:45;;;;;;;2.5;2.05;;;;;;;4.5;80.93848;96053.28;;;;
2020/01/09 02:18:46;;;;;;;2.5;2.05;;;;;;;4.5;80.93848;96053.28;;;;
2020/01/09 02:19:46;;;;;;;2.5;2.05;;;;;;;4.5;80.93848;96053.28;;;;
2020/01/09 02:20:47;;;;;;;2.5;2.05;;;;;;;4.5;80.93848;96053.28;;;;
2020/01/09 02:21:47;;;;;;;2.5;2.05;;;;;;;4.5;80.93848;96053.28;;;;
2020/01/09 02:22:48;;;;;;;2.5;2.05;;;;;;;4.5;80.93848;96053.28;;;;
2020/01/09 02:23:48;;;;;;;2.5;2.05;;;;;;;4.5;80.93848;96053.28;;;;
2020/01/09 02:24:49;;;;;;;2.5;2.05;;;;;;;4.5;80.93848;96053.28;;;;
2020/01/09 02:25:49;;;;;;;2.5;2.05;;;;;;;4.5;80.93848;96053.28;;;;
2020/01/09 02:26:50;;;;;;;2.5;2.05;;;;;;;4.5;80.93848;96053.28;;;;
2020/01/09 02:27:50;;;;;;;3.7;2;;;;;;;4.23;81.22363;96040.95;;;;
2020/01/09 02:28:51;;;;;;;3.7;2;;;;;;;4.23;81.22363;96040.95;;;;
2020/01/09 02:29:51;;;;;;;3.7;2;;;;;;;4.23;81.22363;96040.95;;;;
2020/01/09 02:30:52;;;;;;;3.7;2;;;;;;;4.23;81.22363;96040.95;;;;
2020/01/09 02:31:52;;;;;;;3.7;2;;;;;;;4.23;81.22363;96040.95;;;;
2020/01/09 02:32:52;;;;;;;3.7;2;;;;;;;4.23;81.22363;96040.95;;;;
2020/01/09 02:33:53;;;;;;;3.7;2;;;;;;;4.23;81.22363;96040.95;;;;
2020/01/09 02:34:53;;;;;;;3.7;2;;;;;;;4.23;81.22363;96040.95;;;;
2020/01/09 02:35:54;;;;;;;3.7;2;;;;;;;4.23;81.22363;96040.95;;;;
2020/01/09 02:36:54;;;;;;;3.7;2;;;;;;;4.23;81.22363;96040.95;;;;
2020/01/09 02:37:55;;;;;;;2.15;1.9;;;;;;;3.88;81.48535;96020.1;;;;
2020/01/09 02:38:55;;;;;;;2.15;1.9;;;;;;;3.88;81.48535;96020.1;;;;
2020/01/09 02:39:55;;;;;;;2.15;1.9;;;;;;;3.88;81.48535;96020.1;;;;
2020/01/09 02:40:56;;;;;;;2.15;1.9;;;;;;;3.88;81.48535;96020.1;;;;
2020/01/09 02:41:58;;;;;;;2.15;1.9;;;;;;;3.88;81.48535;96020.1;;;;
2020/01/09 02:42:59;;;;;;;2.15;1.9;;;;;;;3.88;81.48535;96020.1;;;;
2020/01/09 02:43:59;;;;;;;2.15;1.9;;;;;;;3.88;81.48535;96020.1;;;;
2020/01/09 02:45:00;;;;;;;2.15;1.9;;;;;;;3.88;81.48535;96020.1;;;;
2020/01/09 02:46:00;;;;;;;2.15;1.9;;;;;;;3.88;81.48535;96020.1;;;;
2020/01/09 02:47:01;;;;;;;2.15;1.9;;;;;;;3.88;81.48535;96020.1;;;;
2020/01/09 02:48:01;;;;;;;2.15;1.9;;;;;;;3.88;81.48535;96020.1;;;;
2020/01/09 02:49:02;;;;;;;2.55;1.9;;;;;;;3.61;81.82324;96009;;;;
2020/01/09 02:50:02;;;;;;;2.55;1.9;;;;;;;3.61;81.82324;96009;;;;
2020/01/09 02:51:03;;;;;;;2.55;1.9;;;;;;;3.61;81.82324;96009;;;;
2020/01/09 02:52:03;;;;;;;2.55;1.9;;;;;;;3.61;81.82324;96009;;;;
2020/01/09 02:53:04;;;;;;;2.55;1.9;;;;;;;3.61;81.82324;96009;;;;
2020/01/09 02:54:04;;;;;;;2.55;1.9;;;;;;;3.61;81.82324;96009;;;;
2020/01/09 02:55:05;;;;;;;2.55;1.9;;;;;;;3.61;81.82324;96009;;;;
2020/01/09 02:56:05;;;;;;;2.55;1.9;;;;;;;3.61;81.82324;96009;;;;
2020/01/09 02:57:06;;;;;;;2.55;1.9;;;;;;;3.61;81.82324;96009;;;;
2020/01/09 02:58:06;;;;;;;2.55;1.9;;;;;;;3.61;81.82324;96009;;;;
2020/01/09 02:59:07;;;;;;;2.3;1.95;;;;;;;3.36;82.05762;95984.85;;;;
2020/01/09 03:00:07;;;;;;;2.3;1.95;;;;;;;3.36;82.05762;95984.85;;;;
2020/01/09 03:01:08;;;;;;;2.3;1.95;;;;;;;3.36;82.05762;95984.85;;;;
2020/01/09 03:02:08;;;;;;;2.3;1.95;;;;;;;3.36;82.05762;95984.85;;;;
2020/01/09 03:03:09;;;;;;;2.3;1.95;;;;;;;3.36;82.05762;95984.85;;;;
2020/01/09 03:04:09;;;;;;;2.3;1.95;;;;;;;3.36;82.05762;95984.85;;;;
2020/01/09 03:05:09;;;;;;;2.3;1.95;;;;;;;3.36;82.05762;95984.85;;;;
2020/01/09 03:06:10;;;;;;;2.3;1.95;;;;;;;3.36;82.05762;95984.85;;;;
2020/01/09 03:07:10;;;;;;;2.3;1.95;;;;;;;3.36;82.05762;95984.85;;;;
2020/01/09 03:08:11;;;;;;;2.3;1.95;;;;;;;3.36;82.05762;95984.85;;;;
2020/01/09 03:09:11;;;;;;;2.3;1.95;;;;;;;3.36;82.05762;95984.85;;;;
2020/01/09 03:10:12;;;;;;;3.3;2.1;;;;;;;3.24;82.13086;95975.05;;;;
2020/01/09 03:11:12;;;;;;;3.3;2.1;;;;;;;3.24;82.13086;95975.05;;;;
2020/01/09 03:12:13;;;;;;;3.3;2.1;;;;;;;3.24;82.13086;95975.05;;;;
2020/01/09 03:13:13;;;;;;;3.3;2.1;;;;;;;3.24;82.13086;95975.05;;;;
2020/01/09 03:14:14;;;;;;;3.3;2.1;;;;;;;3.24;82.13086;95975.05;;;;
2020/01/09 03:15:14;;;;;;;3.3;2.1;;;;;;;3.24;82.13086;95975.05;;;;
2020/01/09 03:16:15;;;;;;;3.3;2.1;;;;;;;3.24;82.13086;95975.05;;;;
2020/01/09 03:17:15;;;;;;;3.3;2.1;;;;;;;3.24;82.13086;95975.05;;;;
2020/01/09 03:18:16;;;;;;;3.3;2.1;;;;;;;3.24;82.13086;95975.05;;;;
2020/01/09 03:19:16;;;;;;;3.3;2.1;;;;;;;3.24;82.13086;95975.05;;;;
2020/01/09 03:20:16;;;;;;;2.6;1.9;;;;;;;3.1;82.29102;95967.79;;;;
2020/01/09 03:21:17;;;;;;;2.6;1.9;;;;;;;3.1;82.29102;95967.79;;;;
2020/01/09 03:22:17;;;;;;;2.6;1.9;;;;;;;3.1;82.29102;95967.79;;;;
2020/01/09 03:23:18;;;;;;;2.6;1.9;;;;;;;3.1;82.29102;95967.79;;;;
2020/01/09 03:24:18;;;;;;;2.6;1.9;;;;;;;3.1;82.29102;95967.79;;;;
2020/01/09 03:25:19;;;;;;;2.6;1.9;;;;;;;3.1;82.29102;95967.79;;;;
2020/01/09 03:26:19;;;;;;;2.6;1.9;;;;;;;3.1;82.29102;95967.79;;;;
2020/01/09 03:27:20;;;;;;;2.6;1.9;;;;;;;3.1;82.29102;95967.79;;;;
2020/01/09 03:28:20;;;;;;;2.6;1.9;;;;;;;3.1;82.29102;95967.79;;;;
2020/01/09 03:29:21;;;;;;;2.6;1.9;;;;;;;3.1;82.29102;95967.79;;;;
2020/01/09 03:30:21;;;;;;;2.6;1.9;;;;;;;3.1;82.29102;95967.79;;;;
2020/01/09 03:31:21;;;;;;;2.900001;1.8;;;;;;;3.02;82.47559;95964.26;;;;
2020/01/09 03:32:22;;;;;;;2.900001;1.8;;;;;;;3.02;82.47559;95964.26;;;;
2020/01/09 03:33:22;;;;;;;2.900001;1.8;;;;;;;3.02;82.47559;95964.26;;;;
2020/01/09 03:34:23;;;;;;;2.900001;1.8;;;;;;;3.02;82.47559;95964.26;;;;
2020/01/09 03:35:23;;;;;;;2.900001;1.8;;;;;;;3.02;82.47559;95964.26;;;;
2020/01/09 03:36:24;;;;;;;2.900001;1.8;;;;;;;3.02;82.47559;95964.26;;;;
2020/01/09 03:37:24;;;;;;;2.900001;1.8;;;;;;;3.02;82.47559;95964.26;;;;
2020/01/09 03:38:24;;;;;;;2.900001;1.8;;;;;;;3.02;82.47559;95964.26;;;;
2020/01/09 03:39:27;;;;;;;2.900001;1.8;;;;;;;3.02;82.47559;95964.26;;;;
2020/01/09 03:40:38;;;;;;;2.900001;1.8;;;;;;;3.02;82.47559;95964.26;;;;
2020/01/09 03:41:43;;;;;;;2.55;2.05;;;;;;;2.85;82.62109;95970.64;;;;
2020/01/09 03:42:44;;;;;;;2.55;2.05;;;;;;;2.85;82.62109;95970.64;;;;
2020/01/09 03:43:45;;;;;;;2.55;2.05;;;;;;;2.85;82.62109;95970.64;;;;
2020/01/09 03:44:46;;;;;;;2.55;2.05;;;;;;;2.85;82.62109;95970.64;;;;
2020/01/09 03:45:49;;;;;;;2.55;2.05;;;;;;;2.85;82.62109;95970.64;;;;
2020/01/09 03:46:58;;;;;;;2.55;2.05;;;;;;;2.85;82.62109;95970.64;;;;
2020/01/09 03:48:02;;;;;;;2.55;2.05;;;;;;;2.85;82.62109;95970.64;;;;
2020/01/09 03:49:03;;;;;;;2.55;2.05;;;;;;;2.85;82.62109;95970.64;;;;
2020/01/09 03:50:03;;;;;;;2.55;2.05;;;;;;;2.85;82.62109;95970.64;;;;
2020/01/09 03:51:06;;;;;;;2.55;2.05;;;;;;;2.85;82.62109;95970.64;;;;
2020/01/09 03:52:14;;;;;;;3.2;1.8;;;;;;;2.75;83.02051;95962.94;;;;
2020/01/09 03:53:22;;;;;;;3.2;1.8;;;;;;;2.75;83.02051;95962.94;;;;
2020/01/09 03:54:37;;;;;;;3.2;1.8;;;;;;;2.75;83.02051;95962.94;;;;
2020/01/09 03:55:45;;;;;;;3.2;1.8;;;;;;;2.75;83.02051;95962.94;;;;
2020/01/09 03:56:49;;;;;;;3.2;1.8;;;;;;;2.75;83.02051;95962.94;;;;
2020/01/09 03:57:59;;;;;;;3.2;1.8;;;;;;;2.75;83.02051;95962.94;;;;
2020/01/09 03:59:00;;;;;;;3.2;1.8;;;;;;;2.75;83.02051;95962.94;;;;
2020/01/09 04:00:01;;;;;;;3.2;1.8;;;;;;;2.75;83.02051;95962.94;;;;
2020/01/09 04:01:03;;;;;;;3.2;1.8;;;;;;;2.75;83.02051;95962.94;;;;
2020/01/09 04:02:04;;;;;;;3.2;1.8;;;;;;;2.75;83.02051;95962.94;;;;
2020/01/09 04:03:05;;;;;;;2.7;2;;;;;;;2.62;83.23633;95963.97;;;;
2020/01/09 04:04:05;;;;;;;2.7;2;;;;;;;2.62;83.23633;95963.97;;;;
2020/01/09 04:05:06;;;;;;;2.7;2;;;;;;;2.62;83.23633;95963.97;;;;
2020/01/09 04:06:06;;;;;;;2.7;2;;;;;;;2.62;83.23633;95963.97;;;;
2020/01/09 04:07:07;;;;;;;2.7;2;;;;;;;2.62;83.23633;95963.97;;;;
2020/01/09 04:08:07;;;;;;;2.7;2;;;;;;;2.62;83.23633;95963.97;;;;
2020/01/09 04:09:08;;;;;;;2.7;2;;;;;;;2.62;83.23633;95963.97;;;;
2020/01/09 04:10:08;;;;;;;2.7;2;;;;;;;2.62;83.23633;95963.97;;;;
2020/01/09 04:11:09;;;;;;;2.7;2;;;;;;;2.62;83.23633;95963.97;;;;
2020/01/09 04:12:09;;;;;;;2.7;2;;;;;;;2.62;83.23633;95963.97;;;;
2020/01/09 04:13:10;;;;;;;2.7;2;;;;;;;2.62;83.23633;95963.97;;;;
2020/01/09 04:14:11;;;;;;;2.8;2.1;;;;;;;2.57;83.44727;95967.65;;;;
2020/01/09 04:15:11;;;;;;;2.8;2.1;;;;;;;2.57;83.44727;95967.65;;;;
2020/01/09 04:16:12;;;;;;;2.8;2.1;;;;;;;2.57;83.44727;95967.65;;;;
2020/01/09 04:17:13;;;;;;;2.8;2.1;;;;;;;2.57;83.44727;95967.65;;;;
2020/01/09 04:18:13;;;;;;;2.8;2.1;;;;;;;2.57;83.44727;95967.65;;;;
2020/01/09 04:19:13;;;;;;;2.8;2.1;;;;;;;2.57;83.44727;95967.65;;;;
2020/01/09 04:20:14;;;;;;;2.8;2.1;;;;;;;2.57;83.44727;95967.65;;;;
2020/01/09 04:21:15;;;;;;;2.8;2.1;;;;;;;2.57;83.44727;95967.65;;;;
2020/01/09 04:22:15;;;;;;;2.8;2.1;;;;;;;2.57;83.44727;95967.65;;;;
2020/01/09 04:23:16;;;;;;;2.8;2.1;;;;;;;2.57;83.44727;95967.65;;;;
2020/01/09 04:24:17;;;;;;;3;2.3;;;;;;;2.48;83.6084;95959.23;;;;
2020/01/09 04:25:17;;;;;;;3;2.3;;;;;;;2.48;83.6084;95959.23;;;;
2020/01/09 04:26:18;;;;;;;3;2.3;;;;;;;2.48;83.6084;95959.23;;;;
2020/01/09 04:27:22;;;;;;;3;2.3;;;;;;;2.48;83.6084;95959.23;;;;
2020/01/09 04:28:27;;;;;;;3;2.3;;;;;;;2.48;83.6084;95959.23;;;;
2020/01/09 04:29:31;;;;;;;3;2.3;;;;;;;2.48;83.6084;95959.23;;;;
2020/01/09 04:30:34;;;;;;;3;2.3;;;;;;;2.48;83.6084;95959.23;;;;
2020/01/09 04:31:42;;;;;;;3;2.3;;;;;;;2.48;83.6084;95959.23;;;;
2020/01/09 04:32:47;;;;;;;3;2.3;;;;;;;2.48;83.6084;95959.23;;;;
2020/01/09 04:33:49;;;;;;;3;2.3;;;;;;;2.48;83.6084;95959.23;;;;
2020/01/09 04:34:56;;;;;;;3;2.3;;;;;;;2.48;83.6084;95959.23;;;;
2020/01/09 04:36:03;;;;;;;3;2.3;;;;;;;2.48;83.6084;95959.23;;;;
2020/01/09 04:37:22;;;;;;;3;2.3;;;;;;;2.48;83.6084;95959.23;;;;
2020/01/09 04:38:39;;;;;;;3;2.3;;;;;;;2.48;83.6084;95959.23;;;;
2020/01/09 04:40:01;;;;;;;3;2.3;;;;;;;2.48;83.6084;95959.23;;;;
2020/01/09 04:41:07;;;;;;;3;2.3;;;;;;;2.48;83.6084;95959.23;;;;
2020/01/09 04:42:15;;;;;;;3;2.3;;;;;;;2.48;83.6084;95959.23;;;;
2020/01/09 04:43:21;;;;;;;3;2.3;;;;;;;2.48;83.6084;95959.23;;;;
2020/01/09 04:44:22;;;;;;;3;2.3;;;;;;;2.48;83.6084;95959.23;;;;
2020/01/09 04:45:22;;;;;;;3;2.3;;;;;;;2.48;83.6084;95959.23;;;;
2020/01/09 04:46:24;;;;;;;3.7;2.55;;;;;;;2.57;83.75098;95964.98;;;;
2020/01/09 04:47:25;;;;;;;3.7;2.55;;;;;;;2.57;83.75098;95964.98;;;;
2020/01/09 04:48:26;;;;;;;3.7;2.55;;;;;;;2.57;83.75098;95964.98;;;;
2020/01/09 04:49:27;;;;;;;3.7;2.55;;;;;;;2.57;83.75098;95964.98;;;;
2020/01/09 04:50:27;;;;;;;3.7;2.55;;;;;;;2.57;83.75098;95964.98;;;;
2020/01/09 04:51:28;;;;;;;3.7;2.55;;;;;;;2.57;83.75098;95964.98;;;;
2020/01/09 04:52:28;;;;;;;3.7;2.55;;;;;;;2.57;83.75098;95964.98;;;;
2020/01/09 04:53:29;;;;;;;3.7;2.55;;;;;;;2.57;83.75098;95964.98;;;;
2020/01/09 04:54:29;;;;;;;3.7;2.55;;;;;;;2.57;83.75098;95964.98;;;;
2020/01/09 04:55:30;;;;;;;3.7;2.55;;;;;;;2.57;83.75098;95964.98;;;;
2020/01/09 04:56:31;;;;;;;4.400001;2.75;;;;;;;2.55;84.21777;95964.73;;;;
2020/01/09 04:57:31;;;;;;;4.400001;2.75;;;;;;;2.55;84.21777;95964.73;;;;
2020/01/09 04:58:31;;;;;;;4.400001;2.75;;;;;;;2.55;84.21777;95964.73;;;;
2020/01/09 04:59:32;;;;;;;4.400001;2.75;;;;;;;2.55;84.21777;95964.73;;;;
2020/01/09 05:00:32;;;;;;;4.400001;2.75;;;;;;;2.55;84.21777;95964.73;;;;
2020/01/09 05:01:33;;;;;;;4.400001;2.75;;;;;;;2.55;84.21777;95964.73;;;;
2020/01/09 05:02:33;;;;;;;4.400001;2.75;;;;;;;2.55;84.21777;95964.73;;;;
2020/01/09 05:03:34;;;;;;;4.400001;2.75;;;;;;;2.55;84.21777;95964.73;;;;
2020/01/09 05:04:34;;;;;;;4.400001;2.75;;;;;;;2.55;84.21777;95964.73;;;;
2020/01/09 05:05:35;;;;;;;4.400001;2.75;;;;;;;2.55;84.21777;95964.73;;;;
2020/01/09 05:06:35;;;;;;;4.400001;2.75;;;;;;;2.55;84.21777;95964.73;;;;
2020/01/09 05:07:36;;;;;;;4.199999;3.2;;;;;;;2.46;84.49219;95964.42;;;;
2020/01/09 05:08:36;;;;;;;4.199999;3.2;;;;;;;2.46;84.49219;95964.42;;;;
2020/01/09 05:09:37;;;;;;;4.199999;3.2;;;;;;;2.46;84.49219;95964.42;;;;
2020/01/09 05:10:37;;;;;;;4.199999;3.2;;;;;;;2.46;84.49219;95964.42;;;;
2020/01/09 05:11:38;;;;;;;4.199999;3.2;;;;;;;2.46;84.49219;95964.42;;;;
2020/01/09 05:12:38;;;;;;;4.199999;3.2;;;;;;;2.46;84.49219;95964.42;;;;
2020/01/09 05:13:38;;;;;;;4.199999;3.2;;;;;;;2.46;84.49219;95964.42;;;;
2020/01/09 05:14:39;;;;;;;4.199999;3.2;;;;;;;2.46;84.49219;95964.42;;;;
2020/01/09 05:15:39;;;;;;;4.199999;3.2;;;;;;;2.46;84.49219;95964.42;;;;
2020/01/09 05:16:40;;;;;;;4.199999;3.2;;;;;;;2.46;84.49219;95964.42;;;;
2020/01/09 05:17:40;;;;;;;3.700001;2.7;;;;;;;2.5;84.94141;95954.67;;;;
2020/01/09 05:18:41;;;;;;;3.700001;2.7;;;;;;;2.5;84.94141;95954.67;;;;
2020/01/09 05:19:41;;;;;;;3.700001;2.7;;;;;;;2.5;84.94141;95954.67;;;;
2020/01/09 05:20:42;;;;;;;3.700001;2.7;;;;;;;2.5;84.94141;95954.67;;;;
2020/01/09 05:21:42;;;;;;;3.700001;2.7;;;;;;;2.5;84.94141;95954.67;;;;
2020/01/09 05:22:43;;;;;;;3.700001;2.7;;;;;;;2.5;84.94141;95954.67;;;;
2020/01/09 05:23:43;;;;;;;3.700001;2.7;;;;;;;2.5;84.94141;95954.67;;;;
2020/01/09 05:24:44;;;;;;;3.700001;2.7;;;;;;;2.5;84.94141;95954.67;;;;
2020/01/09 05:25:44;;;;;;;3.700001;2.7;;;;;;;2.5;84.94141;95954.67;;;;
2020/01/09 05:26:45;;;;;;;3.700001;2.7;;;;;;;2.5;84.94141;95954.67;;;;
2020/01/09 05:27:45;;;;;;;3.700001;2.7;;;;;;;2.5;84.94141;95954.67;;;;
2020/01/09 05:28:46;;;;;;;3.15;2.45;;;;;;;2.53;85.05176;95945;;;;
2020/01/09 05:29:47;;;;;;;3.15;2.45;;;;;;;2.53;85.05176;95945;;;;
2020/01/09 05:30:47;;;;;;;3.15;2.45;;;;;;;2.53;85.05176;95945;;;;
2020/01/09 05:31:48;;;;;;;3.15;2.45;;;;;;;2.53;85.05176;95945;;;;
2020/01/09 05:32:48;;;;;;;3.15;2.45;;;;;;;2.53;85.05176;95945;;;;
2020/01/09 05:33:49;;;;;;;3.15;2.45;;;;;;;2.53;85.05176;95945;;;;
2020/01/09 05:34:49;;;;;;;3.15;2.45;;;;;;;2.53;85.05176;95945;;;;
2020/01/09 05:35:50;;;;;;;3.15;2.45;;;;;;;2.53;85.05176;95945;;;;
2020/01/09 05:36:50;;;;;;;3.15;2.45;;;;;;;2.53;85.05176;95945;;;;
2020/01/09 05:37:50;;;;;;;3.15;2.45;;;;;;;2.53;85.05176;95945;;;;
2020/01/09 05:38:51;;;;;;;3.400001;2.45;;;;;;;2.6;85.02344;95933.06;;;;
2020/01/09 05:39:51;;;;;;;3.400001;2.45;;;;;;;2.6;85.02344;95933.06;;;;
2020/01/09 05:40:52;;;;;;;3.400001;2.45;;;;;;;2.6;85.02344;95933.06;;;;
2020/01/09 05:41:52;;;;;;;3.400001;2.45;;;;;;;2.6;85.02344;95933.06;;;;
2020/01/09 05:42:53;;;;;;;3.400001;2.45;;;;;;;2.6;85.02344;95933.06;;;;
2020/01/09 05:43:53;;;;;;;3.400001;2.45;;;;;;;2.6;85.02344;95933.06;;;;
2020/01/09 05:44:54;;;;;;;3.400001;2.45;;;;;;;2.6;85.02344;95933.06;;;;
2020/01/09 05:45:54;;;;;;;3.400001;2.45;;;;;;;2.6;85.02344;95933.06;;;;
2020/01/09 05:46:54;;;;;;;3.400001;2.45;;;;;;;2.6;85.02344;95933.06;;;;
2020/01/09 05:47:55;;;;;;;3.400001;2.45;;;;;;;2.6;85.02344;95933.06;;;;
2020/01/09 05:48:55;;;;;;;3.400001;2.45;;;;;;;2.6;85.02344;95933.06;;;;
2020/01/09 05:49:56;;;;;;;5.4;2.65;;;;;;;2.52;84.80957;95931.25;;;;
2020/01/09 05:50:56;;;;;;;5.4;2.65;;;;;;;2.52;84.80957;95931.25;;;;
2020/01/09 05:51:57;;;;;;;5.4;2.65;;;;;;;2.52;84.80957;95931.25;;;;
2020/01/09 05:52:57;;;;;;;5.4;2.65;;;;;;;2.52;84.80957;95931.25;;;;
2020/01/09 05:53:58;;;;;;;5.4;2.65;;;;;;;2.52;84.80957;95931.25;;;;
2020/01/09 05:54:58;;;;;;;5.4;2.65;;;;;;;2.52;84.80957;95931.25;;;;
2020/01/09 05:55:59;;;;;;;5.4;2.65;;;;;;;2.52;84.80957;95931.25;;;;
2020/01/09 05:56:59;;;;;;;5.4;2.65;;;;;;;2.52;84.80957;95931.25;;;;
2020/01/09 05:57:59;;;;;;;5.4;2.65;;;;;;;2.52;84.80957;95931.25;;;;
2020/01/09 05:59:00;;;;;;;5.4;2.65;;;;;;;2.52;84.80957;95931.25;;;;
2020/01/09 06:00:00;;;;;;;4.05;2.8;;;;;;;2.37;84.87207;95933.04;;;;